Terminal Aerodrome Forecast
Issued by NWS Wichita, KS

Home | Current Version | Previous Version | Text Only | Print | Product List | Glossary Off
Versions: 1 2 3 4 5 6 7 8 9 10 11 12 13 14 15 16

000
FTUS43 KICT 270900 AAC
TAFICT
TAF AMD
KICT 270900Z 2709/2806 29007KT P6SM VCTS BKN080CB
      TEMPO 2709/2711 -TSRA BKN080CB
     FM271200 11006KT P6SM SCT250
     FM271800 18018G26KT P6SM SCT250
     FM280100 17013KT P6SM SCT250=

USA.gov is the U.S. government's official web portal to all federal, state and local government web resources and services.